sensor_id;sensor_type;location;lat;lon;timestamp;P1;durP1;ratioP1;P2;durP2;ratioP2
69789;SDS011;57064;52.046;4.800;2022-08-19T00:01:29;24.52;;;12.48;;
69789;SDS011;57064;52.046;4.800;2022-08-19T00:04:00;24.40;;;11.45;;
69789;SDS011;57064;52.046;4.800;2022-08-19T00:06:28;25.98;;;11.20;;
69789;SDS011;57064;52.046;4.800;2022-08-19T00:08:56;21.55;;;11.18;;
69789;SDS011;57064;52.046;4.800;2022-08-19T00:11:23;20.77;;;11.07;;
69789;SDS011;57064;52.046;4.800;2022-08-19T00:13:50;21.65;;;10.95;;
69789;SDS011;57064;52.046;4.800;2022-08-19T00:16:16;20.38;;;9.85;;
69789;SDS011;57064;52.046;4.800;2022-08-19T00:18:45;20.27;;;9.13;;
69789;SDS011;57064;52.046;4.800;2022-08-19T00:21:11;17.27;;;9.93;;
69789;SDS011;57064;52.046;4.800;2022-08-19T00:23:38;15.88;;;9.68;;
69789;SDS011;57064;52.046;4.800;2022-08-19T00:26:04;19.55;;;10.02;;
69789;SDS011;57064;52.046;4.800;2022-08-19T00:28:31;21.60;;;10.57;;
69789;SDS011;57064;52.046;4.800;2022-08-19T00:30:57;22.45;;;12.02;;
69789;SDS011;57064;52.046;4.800;2022-08-19T00:33:24;19.05;;;11.10;;
69789;SDS011;57064;52.046;4.800;2022-08-19T00:35:51;21.30;;;11.48;;
69789;SDS011;57064;52.046;4.800;2022-08-19T00:38:17;20.42;;;10.98;;
69789;SDS011;57064;52.046;4.800;2022-08-19T00:40:47;22.83;;;11.68;;
69789;SDS011;57064;52.046;4.800;2022-08-19T00:43:14;19.83;;;11.07;;
69789;SDS011;57064;52.046;4.800;2022-08-19T00:45:45;26.50;;;12.00;;
69789;SDS011;57064;52.046;4.800;2022-08-19T00:48:12;25.73;;;12.63;;
69789;SDS011;57064;52.046;4.800;2022-08-19T00:50:42;22.92;;;10.77;;
69789;SDS011;57064;52.046;4.800;2022-08-19T00:53:09;26.88;;;12.55;;
69789;SDS011;57064;52.046;4.800;2022-08-19T00:55:38;34.10;;;13.73;;
69789;SDS011;57064;52.046;4.800;2022-08-19T00:58:08;26.98;;;13.10;;
69789;SDS011;57064;52.046;4.800;2022-08-19T01:00:38;29.60;;;14.38;;
69789;SDS011;57064;52.046;4.800;2022-08-19T01:03:05;31.77;;;14.93;;
69789;SDS011;57064;52.046;4.800;2022-08-19T01:05:34;41.17;;;18.02;;
69789;SDS011;57064;52.046;4.800;2022-08-19T01:08:02;40.03;;;17.45;;
69789;SDS011;57064;52.046;4.800;2022-08-19T01:10:31;44.47;;;17.75;;
69789;SDS011;57064;52.046;4.800;2022-08-19T01:13:02;45.50;;;19.60;;
69789;SDS011;57064;52.046;4.800;2022-08-19T01:15:33;41.90;;;19.20;;
69789;SDS011;57064;52.046;4.800;2022-08-19T01:18:09;46.78;;;18.00;;
69789;SDS011;57064;52.046;4.800;2022-08-19T01:20:38;47.72;;;19.20;;
69789;SDS011;57064;52.046;4.800;2022-08-19T01:23:05;53.75;;;21.88;;
69789;SDS011;57064;52.046;4.800;2022-08-19T01:25:33;55.80;;;22.55;;
69789;SDS011;57064;52.046;4.800;2022-08-19T01:28:06;65.55;;;24.33;;
69789;SDS011;57064;52.046;4.800;2022-08-19T01:30:33;65.78;;;24.73;;
69789;SDS011;57064;52.046;4.800;2022-08-19T01:33:00;67.43;;;25.60;;
69789;SDS011;57064;52.046;4.800;2022-08-19T01:35:28;73.35;;;26.55;;
69789;SDS011;57064;52.046;4.800;2022-08-19T01:37:57;75.25;;;28.77;;
69789;SDS011;57064;52.046;4.800;2022-08-19T01:40:32;76.85;;;27.25;;
69789;SDS011;57064;52.046;4.800;2022-08-19T01:43:01;71.45;;;27.40;;
69789;SDS011;57064;52.046;4.800;2022-08-19T01:45:29;73.30;;;28.40;;
69789;SDS011;57064;52.046;4.800;2022-08-19T01:47:57;84.63;;;29.13;;
69789;SDS011;57064;52.046;4.800;2022-08-19T01:50:24;80.55;;;26.77;;
69789;SDS011;57064;52.046;4.800;2022-08-19T01:52:51;72.47;;;27.75;;
69789;SDS011;57064;52.046;4.800;2022-08-19T01:55:18;66.72;;;27.65;;
69789;SDS011;57064;52.046;4.800;2022-08-19T01:57:50;66.45;;;26.30;;
69789;SDS011;57064;52.046;4.800;2022-08-19T02:00:20;58.60;;;24.88;;
69789;SDS011;57064;52.046;4.800;2022-08-19T02:02:47;61.97;;;24.73;;
69789;SDS011;57064;52.046;4.800;2022-08-19T02:05:14;58.28;;;26.10;;
69789;SDS011;57064;52.046;4.800;2022-08-19T02:07:43;61.05;;;24.10;;
69789;SDS011;57064;52.046;4.800;2022-08-19T02:10:11;64.50;;;23.48;;
69789;SDS011;57064;52.046;4.800;2022-08-19T02:12:40;55.50;;;23.45;;
69789;SDS011;57064;52.046;4.800;2022-08-19T02:15:06;51.95;;;22.50;;
69789;SDS011;57064;52.046;4.800;2022-08-19T02:17:33;53.42;;;22.38;;
69789;SDS011;57064;52.046;4.800;2022-08-19T02:19:59;55.00;;;22.23;;
69789;SDS011;57064;52.046;4.800;2022-08-19T02:22:26;55.53;;;22.52;;
69789;SDS011;57064;52.046;4.800;2022-08-19T02:24:52;56.33;;;23.33;;
69789;SDS011;57064;52.046;4.800;2022-08-19T02:27:19;64.07;;;23.67;;
69789;SDS011;57064;52.046;4.800;2022-08-19T02:29:47;52.38;;;23.60;;
69789;SDS011;57064;52.046;4.800;2022-08-19T02:32:14;49.60;;;21.58;;
69789;SDS011;57064;52.046;4.800;2022-08-19T02:34:41;56.13;;;21.65;;
69789;SDS011;57064;52.046;4.800;2022-08-19T02:37:07;52.40;;;23.33;;
69789;SDS011;57064;52.046;4.800;2022-08-19T02:39:53;49.88;;;21.17;;
69789;SDS011;57064;52.046;4.800;2022-08-19T02:42:19;55.95;;;20.67;;
69789;SDS011;57064;52.046;4.800;2022-08-19T02:44:45;55.50;;;21.52;;
69789;SDS011;57064;52.046;4.800;2022-08-19T02:47:11;48.75;;;20.63;;
69789;SDS011;57064;52.046;4.800;2022-08-19T02:49:39;53.72;;;20.85;;
69789;SDS011;57064;52.046;4.800;2022-08-19T02:52:05;50.40;;;20.45;;
69789;SDS011;57064;52.046;4.800;2022-08-19T02:54:31;49.92;;;21.70;;
69789;SDS011;57064;52.046;4.800;2022-08-19T02:56:58;46.00;;;20.35;;
69789;SDS011;57064;52.046;4.800;2022-08-19T02:59:24;46.25;;;20.38;;
69789;SDS011;57064;52.046;4.800;2022-08-19T03:01:51;47.47;;;20.23;;
69789;SDS011;57064;52.046;4.800;2022-08-19T03:04:17;44.85;;;18.13;;
69789;SDS011;57064;52.046;4.800;2022-08-19T03:06:45;41.38;;;17.98;;
69789;SDS011;57064;52.046;4.800;2022-08-19T03:09:12;47.20;;;19.60;;
69789;SDS011;57064;52.046;4.800;2022-08-19T03:11:39;40.33;;;18.48;;
69789;SDS011;57064;52.046;4.800;2022-08-19T03:14:06;41.83;;;19.15;;
69789;SDS011;57064;52.046;4.800;2022-08-19T03:16:34;46.17;;;20.05;;
69789;SDS011;57064;52.046;4.800;2022-08-19T03:19:11;43.58;;;21.10;;
69789;SDS011;57064;52.046;4.800;2022-08-19T03:21:38;53.85;;;21.77;;
69789;SDS011;57064;52.046;4.800;2022-08-19T03:24:05;57.22;;;22.40;;
69789;SDS011;57064;52.046;4.800;2022-08-19T03:26:33;48.47;;;21.10;;
69789;SDS011;57064;52.046;4.800;2022-08-19T03:29:03;63.45;;;24.85;;
69789;SDS011;57064;52.046;4.800;2022-08-19T03:31:29;59.75;;;25.02;;
69789;SDS011;57064;52.046;4.800;2022-08-19T03:33:56;62.47;;;25.63;;
69789;SDS011;57064;52.046;4.800;2022-08-19T03:36:23;66.45;;;26.48;;
69789;SDS011;57064;52.046;4.800;2022-08-19T03:38:52;68.80;;;26.25;;
69789;SDS011;57064;52.046;4.800;2022-08-19T03:41:21;77.53;;;29.23;;
69789;SDS011;57064;52.046;4.800;2022-08-19T03:43:55;78.55;;;29.70;;
69789;SDS011;57064;52.046;4.800;2022-08-19T03:46:24;73.50;;;27.13;;
69789;SDS011;57064;52.046;4.800;2022-08-19T03:48:52;77.80;;;29.73;;
69789;SDS011;57064;52.046;4.800;2022-08-19T03:51:24;97.47;;;31.40;;
69789;SDS011;57064;52.046;4.800;2022-08-19T03:53:53;91.50;;;32.40;;
69789;SDS011;57064;52.046;4.800;2022-08-19T03:56:20;99.03;;;31.98;;
69789;SDS011;57064;52.046;4.800;2022-08-19T03:58:46;111.80;;;34.35;;
69789;SDS011;57064;52.046;4.800;2022-08-19T04:01:17;112.95;;;35.60;;
69789;SDS011;57064;52.046;4.800;2022-08-19T04:03:44;109.60;;;34.00;;
69789;SDS011;57064;52.046;4.800;2022-08-19T04:06:18;112.35;;;34.90;;
69789;SDS011;57064;52.046;4.800;2022-08-19T04:08:49;116.72;;;33.80;;
69789;SDS011;57064;52.046;4.800;2022-08-19T04:11:18;131.57;;;38.83;;
69789;SDS011;57064;52.046;4.800;2022-08-19T04:13:46;134.23;;;36.35;;
69789;SDS011;57064;52.046;4.800;2022-08-19T04:16:13;129.05;;;35.90;;
69789;SDS011;57064;52.046;4.800;2022-08-19T04:18:40;134.77;;;36.63;;
69789;SDS011;57064;52.046;4.800;2022-08-19T04:21:07;135.18;;;38.17;;
69789;SDS011;57064;52.046;4.800;2022-08-19T04:23:39;125.00;;;34.88;;
69789;SDS011;57064;52.046;4.800;2022-08-19T04:26:05;103.22;;;32.75;;
69789;SDS011;57064;52.046;4.800;2022-08-19T04:28:31;104.45;;;30.48;;
69789;SDS011;57064;52.046;4.800;2022-08-19T04:30:59;105.05;;;30.92;;
69789;SDS011;57064;52.046;4.800;2022-08-19T04:33:25;107.40;;;31.65;;
69789;SDS011;57064;52.046;4.800;2022-08-19T04:35:52;109.15;;;31.35;;
69789;SDS011;57064;52.046;4.800;2022-08-19T04:38:19;133.70;;;33.47;;
69789;SDS011;57064;52.046;4.800;2022-08-19T04:40:50;157.85;;;39.63;;
69789;SDS011;57064;52.046;4.800;2022-08-19T04:43:35;169.50;;;43.10;;
69789;SDS011;57064;52.046;4.800;2022-08-19T04:46:09;188.20;;;46.45;;
69789;SDS011;57064;52.046;4.800;2022-08-19T04:48:37;202.85;;;47.85;;
69789;SDS011;57064;52.046;4.800;2022-08-19T04:51:07;220.40;;;48.55;;
69789;SDS011;57064;52.046;4.800;2022-08-19T04:53:36;215.98;;;49.65;;
69789;SDS011;57064;52.046;4.800;2022-08-19T04:56:12;225.73;;;51.83;;
69789;SDS011;57064;52.046;4.800;2022-08-19T04:58:40;240.40;;;51.25;;
69789;SDS011;57064;52.046;4.800;2022-08-19T05:01:11;219.07;;;51.15;;
69789;SDS011;57064;52.046;4.800;2022-08-19T05:03:41;232.73;;;51.40;;
69789;SDS011;57064;52.046;4.800;2022-08-19T05:06:08;255.05;;;52.28;;
69789;SDS011;57064;52.046;4.800;2022-08-19T05:08:36;257.38;;;53.42;;
69789;SDS011;57064;52.046;4.800;2022-08-19T05:13:42;254.85;;;54.15;;
69789;SDS011;57064;52.046;4.800;2022-08-19T05:16:09;246.88;;;52.72;;
69789;SDS011;57064;52.046;4.800;2022-08-19T05:18:36;237.48;;;54.10;;
69789;SDS011;57064;52.046;4.800;2022-08-19T05:21:22;236.30;;;55.08;;
69789;SDS011;57064;52.046;4.800;2022-08-19T05:24:07;219.00;;;52.60;;
69789;SDS011;57064;52.046;4.800;2022-08-19T05:26:37;223.05;;;51.55;;
69789;SDS011;57064;52.046;4.800;2022-08-19T05:29:04;241.23;;;54.08;;
69789;SDS011;57064;52.046;4.800;2022-08-19T05:31:32;212.30;;;49.70;;
69789;SDS011;57064;52.046;4.800;2022-08-19T05:34:00;213.75;;;50.55;;
69789;SDS011;57064;52.046;4.800;2022-08-19T05:36:32;214.55;;;48.33;;
69789;SDS011;57064;52.046;4.800;2022-08-19T05:39:00;202.48;;;49.83;;
69789;SDS011;57064;52.046;4.800;2022-08-19T05:41:28;211.25;;;48.72;;
69789;SDS011;57064;52.046;4.800;2022-08-19T05:44:00;198.10;;;46.20;;
69789;SDS011;57064;52.046;4.800;2022-08-19T05:46:31;195.57;;;48.95;;
69789;SDS011;57064;52.046;4.800;2022-08-19T05:48:57;196.43;;;49.08;;
69789;SDS011;57064;52.046;4.800;2022-08-19T05:51:24;177.80;;;47.00;;
69789;SDS011;57064;52.046;4.800;2022-08-19T05:53:50;180.90;;;46.20;;
69789;SDS011;57064;52.046;4.800;2022-08-19T05:56:17;178.35;;;45.83;;
69789;SDS011;57064;52.046;4.800;2022-08-19T05:58:44;163.45;;;47.42;;
69789;SDS011;57064;52.046;4.800;2022-08-19T06:01:12;170.20;;;46.95;;
69789;SDS011;57064;52.046;4.800;2022-08-19T06:03:40;161.85;;;46.10;;
69789;SDS011;57064;52.046;4.800;2022-08-19T06:06:07;157.57;;;47.22;;
69789;SDS011;57064;52.046;4.800;2022-08-19T06:08:34;148.23;;;45.00;;
69789;SDS011;57064;52.046;4.800;2022-08-19T06:11:12;133.10;;;42.00;;
69789;SDS011;57064;52.046;4.800;2022-08-19T06:13:50;144.88;;;45.33;;
69789;SDS011;57064;52.046;4.800;2022-08-19T06:16:18;130.40;;;42.90;;
69789;SDS011;57064;52.046;4.800;2022-08-19T06:18:47;125.85;;;41.10;;
69789;SDS011;57064;52.046;4.800;2022-08-19T06:21:20;121.85;;;41.53;;
69789;SDS011;57064;52.046;4.800;2022-08-19T06:23:47;116.93;;;39.22;;
69789;SDS011;57064;52.046;4.800;2022-08-19T06:26:15;108.28;;;37.20;;
69789;SDS011;57064;52.046;4.800;2022-08-19T06:28:43;88.88;;;37.20;;
69789;SDS011;57064;52.046;4.800;2022-08-19T06:31:11;85.45;;;33.60;;
69789;SDS011;57064;52.046;4.800;2022-08-19T06:33:39;82.38;;;34.67;;
69789;SDS011;57064;52.046;4.800;2022-08-19T06:36:06;82.55;;;33.72;;
69789;SDS011;57064;52.046;4.800;2022-08-19T06:38:33;74.90;;;32.35;;
69789;SDS011;57064;52.046;4.800;2022-08-19T06:41:00;69.97;;;32.30;;
69789;SDS011;57064;52.046;4.800;2022-08-19T06:43:29;72.20;;;31.15;;
69789;SDS011;57064;52.046;4.800;2022-08-19T06:45:55;73.50;;;31.60;;
69789;SDS011;57064;52.046;4.800;2022-08-19T06:48:21;67.43;;;30.67;;
69789;SDS011;57064;52.046;4.800;2022-08-19T06:50:47;62.88;;;29.20;;
69789;SDS011;57064;52.046;4.800;2022-08-19T06:53:16;68.13;;;30.67;;
69789;SDS011;57064;52.046;4.800;2022-08-19T06:55:44;67.15;;;29.58;;
69789;SDS011;57064;52.046;4.800;2022-08-19T06:58:10;70.38;;;31.25;;
69789;SDS011;57064;52.046;4.800;2022-08-19T07:00:36;66.57;;;31.70;;
69789;SDS011;57064;52.046;4.800;2022-08-19T07:03:02;61.38;;;29.23;;
69789;SDS011;57064;52.046;4.800;2022-08-19T07:05:28;58.40;;;28.92;;
69789;SDS011;57064;52.046;4.800;2022-08-19T07:07:54;54.83;;;27.25;;
69789;SDS011;57064;52.046;4.800;2022-08-19T07:10:22;60.97;;;28.88;;
69789;SDS011;57064;52.046;4.800;2022-08-19T07:12:48;55.00;;;26.75;;
69789;SDS011;57064;52.046;4.800;2022-08-19T07:15:15;51.70;;;26.55;;
69789;SDS011;57064;52.046;4.800;2022-08-19T07:17:41;53.05;;;26.10;;
69789;SDS011;57064;52.046;4.800;2022-08-19T07:20:08;56.13;;;28.30;;
69789;SDS011;57064;52.046;4.800;2022-08-19T07:22:35;49.10;;;25.30;;
69789;SDS011;57064;52.046;4.800;2022-08-19T07:25:03;48.80;;;26.42;;
69789;SDS011;57064;52.046;4.800;2022-08-19T07:27:30;50.97;;;26.65;;
69789;SDS011;57064;52.046;4.800;2022-08-19T07:29:56;52.00;;;25.50;;
69789;SDS011;57064;52.046;4.800;2022-08-19T07:32:22;55.30;;;31.08;;
69789;SDS011;57064;52.046;4.800;2022-08-19T07:34:51;54.17;;;29.55;;
69789;SDS011;57064;52.046;4.800;2022-08-19T07:37:17;57.17;;;27.70;;
69789;SDS011;57064;52.046;4.800;2022-08-19T07:39:43;50.97;;;27.90;;
69789;SDS011;57064;52.046;4.800;2022-08-19T07:42:10;53.90;;;28.88;;
69789;SDS011;57064;52.046;4.800;2022-08-19T07:44:36;53.40;;;29.17;;
69789;SDS011;57064;52.046;4.800;2022-08-19T07:47:03;50.83;;;26.58;;
69789;SDS011;57064;52.046;4.800;2022-08-19T07:49:29;47.50;;;25.90;;
69789;SDS011;57064;52.046;4.800;2022-08-19T07:54:28;45.42;;;25.27;;
69789;SDS011;57064;52.046;4.800;2022-08-19T07:56:55;40.50;;;22.67;;
69789;SDS011;57064;52.046;4.800;2022-08-19T07:59:22;45.85;;;22.63;;
69789;SDS011;57064;52.046;4.800;2022-08-19T08:01:49;42.38;;;22.30;;
69789;SDS011;57064;52.046;4.800;2022-08-19T08:04:16;42.10;;;21.80;;
69789;SDS011;57064;52.046;4.800;2022-08-19T08:07:03;41.60;;;22.75;;
69789;SDS011;57064;52.046;4.800;2022-08-19T08:09:49;43.55;;;22.60;;
69789;SDS011;57064;52.046;4.800;2022-08-19T08:12:20;36.38;;;21.38;;
69789;SDS011;57064;52.046;4.800;2022-08-19T08:14:54;37.03;;;22.35;;
69789;SDS011;57064;52.046;4.800;2022-08-19T08:17:24;39.75;;;24.15;;
69789;SDS011;57064;52.046;4.800;2022-08-19T08:19:52;43.00;;;24.65;;
69789;SDS011;57064;52.046;4.800;2022-08-19T08:22:19;40.95;;;24.98;;
69789;SDS011;57064;52.046;4.800;2022-08-19T08:25:10;39.95;;;22.48;;
69789;SDS011;57064;52.046;4.800;2022-08-19T08:27:39;35.20;;;22.30;;
69789;SDS011;57064;52.046;4.800;2022-08-19T08:30:08;36.00;;;20.23;;
69789;SDS011;57064;52.046;4.800;2022-08-19T08:32:39;31.73;;;20.48;;
69789;SDS011;57064;52.046;4.800;2022-08-19T08:35:06;28.08;;;19.40;;
69789;SDS011;57064;52.046;4.800;2022-08-19T08:37:35;24.33;;;16.30;;
69789;SDS011;57064;52.046;4.800;2022-08-19T08:40:05;25.48;;;16.88;;
69789;SDS011;57064;52.046;4.800;2022-08-19T08:43:00;30.92;;;16.77;;
69789;SDS011;57064;52.046;4.800;2022-08-19T08:45:36;31.30;;;18.20;;
69789;SDS011;57064;52.046;4.800;2022-08-19T08:48:22;28.63;;;19.02;;
69789;SDS011;57064;52.046;4.800;2022-08-19T08:51:03;29.40;;;18.48;;
69789;SDS011;57064;52.046;4.800;2022-08-19T08:53:34;30.52;;;18.33;;
69789;SDS011;57064;52.046;4.800;2022-08-19T08:56:02;28.85;;;19.55;;
69789;SDS011;57064;52.046;4.800;2022-08-19T08:58:40;36.13;;;21.05;;
69789;SDS011;57064;52.046;4.800;2022-08-19T09:01:13;34.50;;;21.42;;
69789;SDS011;57064;52.046;4.800;2022-08-19T09:03:40;31.75;;;21.58;;
69789;SDS011;57064;52.046;4.800;2022-08-19T09:06:31;33.05;;;20.15;;
69789;SDS011;57064;52.046;4.800;2022-08-19T09:16:49;29.80;;;20.27;;
69789;SDS011;57064;52.046;4.800;2022-08-19T09:19:16;33.60;;;20.90;;
69789;SDS011;57064;52.046;4.800;2022-08-19T09:21:42;31.40;;;20.30;;
69789;SDS011;57064;52.046;4.800;2022-08-19T09:24:09;32.70;;;20.58;;
69789;SDS011;57064;52.046;4.800;2022-08-19T09:26:35;37.55;;;20.10;;
69789;SDS011;57064;52.046;4.800;2022-08-19T09:29:01;38.55;;;20.50;;
69789;SDS011;57064;52.046;4.800;2022-08-19T09:31:30;33.67;;;19.50;;
69789;SDS011;57064;52.046;4.800;2022-08-19T09:33:57;30.75;;;19.92;;
69789;SDS011;57064;52.046;4.800;2022-08-19T09:36:25;31.70;;;20.70;;
69789;SDS011;57064;52.046;4.800;2022-08-19T09:38:54;33.65;;;18.70;;
69789;SDS011;57064;52.046;4.800;2022-08-19T09:41:22;35.58;;;19.52;;
69789;SDS011;57064;52.046;4.800;2022-08-19T09:43:50;33.70;;;19.77;;
69789;SDS011;57064;52.046;4.800;2022-08-19T09:46:21;30.30;;;20.45;;
69789;SDS011;57064;52.046;4.800;2022-08-19T09:48:49;33.47;;;19.77;;
69789;SDS011;57064;52.046;4.800;2022-08-19T09:51:17;35.47;;;20.52;;
69789;SDS011;57064;52.046;4.800;2022-08-19T09:53:46;28.83;;;19.50;;
69789;SDS011;57064;52.046;4.800;2022-08-19T09:56:18;30.98;;;19.48;;
69789;SDS011;57064;52.046;4.800;2022-08-19T09:58:46;30.13;;;20.55;;
69789;SDS011;57064;52.046;4.800;2022-08-19T10:01:20;29.60;;;19.60;;
69789;SDS011;57064;52.046;4.800;2022-08-19T10:03:49;27.48;;;18.45;;
69789;SDS011;57064;52.046;4.800;2022-08-19T10:06:18;24.45;;;18.25;;
69789;SDS011;57064;52.046;4.800;2022-08-19T10:08:45;25.45;;;18.58;;
69789;SDS011;57064;52.046;4.800;2022-08-19T10:11:12;29.58;;;17.23;;
69789;SDS011;57064;52.046;4.800;2022-08-19T10:13:41;32.28;;;17.88;;
69789;SDS011;57064;52.046;4.800;2022-08-19T10:16:10;27.70;;;18.33;;
69789;SDS011;57064;52.046;4.800;2022-08-19T10:18:38;26.83;;;16.80;;
69789;SDS011;57064;52.046;4.800;2022-08-19T10:21:16;25.52;;;16.40;;
69789;SDS011;57064;52.046;4.800;2022-08-19T10:23:46;28.60;;;17.38;;
69789;SDS011;57064;52.046;4.800;2022-08-19T10:26:15;22.30;;;15.65;;
69789;SDS011;57064;52.046;4.800;2022-08-19T10:28:45;25.95;;;16.85;;
69789;SDS011;57064;52.046;4.800;2022-08-19T10:31:13;20.48;;;15.18;;
69789;SDS011;57064;52.046;4.800;2022-08-19T10:33:42;20.95;;;15.38;;
69789;SDS011;57064;52.046;4.800;2022-08-19T10:36:10;23.33;;;14.32;;
69789;SDS011;57064;52.046;4.800;2022-08-19T10:38:42;21.02;;;14.48;;
69789;SDS011;57064;52.046;4.800;2022-08-19T10:41:14;21.05;;;13.80;;
69789;SDS011;57064;52.046;4.800;2022-08-19T10:43:43;19.08;;;13.20;;
69789;SDS011;57064;52.046;4.800;2022-08-19T10:46:11;21.92;;;14.07;;
69789;SDS011;57064;52.046;4.800;2022-08-19T10:48:39;17.50;;;13.32;;
69789;SDS011;57064;52.046;4.800;2022-08-19T10:51:06;16.25;;;11.75;;
69789;SDS011;57064;52.046;4.800;2022-08-19T10:53:51;21.90;;;13.00;;
69789;SDS011;57064;52.046;4.800;2022-08-19T10:56:18;24.55;;;13.00;;
69789;SDS011;57064;52.046;4.800;2022-08-19T10:59:03;16.88;;;10.93;;
69789;SDS011;57064;52.046;4.800;2022-08-19T11:01:30;17.98;;;9.80;;
69789;SDS011;57064;52.046;4.800;2022-08-19T11:03:58;13.13;;;9.57;;
69789;SDS011;57064;52.046;4.800;2022-08-19T11:06:26;13.30;;;9.18;;
69789;SDS011;57064;52.046;4.800;2022-08-19T11:08:53;15.30;;;8.98;;
69789;SDS011;57064;52.046;4.800;2022-08-19T11:11:19;14.20;;;9.52;;
69789;SDS011;57064;52.046;4.800;2022-08-19T11:13:46;15.25;;;8.30;;
69789;SDS011;57064;52.046;4.800;2022-08-19T11:16:19;16.15;;;7.93;;
69789;SDS011;57064;52.046;4.800;2022-08-19T11:18:48;15.02;;;8.88;;
69789;SDS011;57064;52.046;4.800;2022-08-19T11:21:24;12.77;;;8.32;;
69789;SDS011;57064;52.046;4.800;2022-08-19T11:23:58;13.02;;;7.80;;
69789;SDS011;57064;52.046;4.800;2022-08-19T11:26:26;10.50;;;7.28;;
69789;SDS011;57064;52.046;4.800;2022-08-19T11:28:54;12.27;;;6.97;;
69789;SDS011;57064;52.046;4.800;2022-08-19T11:31:23;11.43;;;6.70;;
69789;SDS011;57064;52.046;4.800;2022-08-19T11:33:51;10.95;;;8.27;;
69789;SDS011;57064;52.046;4.800;2022-08-19T11:36:20;12.50;;;7.20;;
69789;SDS011;57064;52.046;4.800;2022-08-19T11:38:47;11.85;;;7.45;;
69789;SDS011;57064;52.046;4.800;2022-08-19T11:41:15;10.75;;;7.03;;
69789;SDS011;57064;52.046;4.800;2022-08-19T11:43:43;8.75;;;6.18;;
69789;SDS011;57064;52.046;4.800;2022-08-19T11:46:10;16.67;;;6.53;;
69789;SDS011;57064;52.046;4.800;2022-08-19T11:48:39;10.45;;;6.13;;
69789;SDS011;57064;52.046;4.800;2022-08-19T11:51:06;10.32;;;6.20;;
69789;SDS011;57064;52.046;4.800;2022-08-19T11:53:36;8.82;;;4.38;;
69789;SDS011;57064;52.046;4.800;2022-08-19T11:56:04;10.98;;;5.90;;
69789;SDS011;57064;52.046;4.800;2022-08-19T11:58:31;8.00;;;4.80;;
69789;SDS011;57064;52.046;4.800;2022-08-19T12:00:59;6.45;;;3.25;;
69789;SDS011;57064;52.046;4.800;2022-08-19T12:03:25;5.43;;;3.08;;
69789;SDS011;57064;52.046;4.800;2022-08-19T12:05:51;4.28;;;2.60;;
69789;SDS011;57064;52.046;4.800;2022-08-19T12:08:17;8.68;;;2.78;;
69789;SDS011;57064;52.046;4.800;2022-08-19T12:10:44;7.85;;;3.25;;
69789;SDS011;57064;52.046;4.800;2022-08-19T12:13:13;5.22;;;3.20;;
69789;SDS011;57064;52.046;4.800;2022-08-19T12:15:43;9.48;;;3.75;;
69789;SDS011;57064;52.046;4.800;2022-08-19T12:18:10;9.10;;;3.17;;
69789;SDS011;57064;52.046;4.800;2022-08-19T12:20:39;4.78;;;2.90;;
69789;SDS011;57064;52.046;4.800;2022-08-19T12:23:07;5.45;;;2.60;;
69789;SDS011;57064;52.046;4.800;2022-08-19T12:25:37;5.88;;;2.95;;
69789;SDS011;57064;52.046;4.800;2022-08-19T12:28:13;7.95;;;2.15;;
69789;SDS011;57064;52.046;4.800;2022-08-19T12:30:40;4.10;;;2.22;;
69789;SDS011;57064;52.046;4.800;2022-08-19T12:33:06;6.65;;;2.28;;
69789;SDS011;57064;52.046;4.800;2022-08-19T12:35:33;3.35;;;2.10;;
69789;SDS011;57064;52.046;4.800;2022-08-19T12:37:59;5.93;;;2.80;;
69789;SDS011;57064;52.046;4.800;2022-08-19T12:40:27;3.25;;;2.13;;
69789;SDS011;57064;52.046;4.800;2022-08-19T12:42:53;3.13;;;2.17;;
69789;SDS011;57064;52.046;4.800;2022-08-19T12:45:20;3.95;;;2.28;;
69789;SDS011;57064;52.046;4.800;2022-08-19T12:47:47;6.03;;;2.35;;
69789;SDS011;57064;52.046;4.800;2022-08-19T12:50:14;5.10;;;1.90;;
69789;SDS011;57064;52.046;4.800;2022-08-19T12:52:40;3.05;;;1.70;;
69789;SDS011;57064;52.046;4.800;2022-08-19T12:55:07;3.50;;;1.58;;
69789;SDS011;57064;52.046;4.800;2022-08-19T12:57:34;2.50;;;1.73;;
69789;SDS011;57064;52.046;4.800;2022-08-19T13:00:11;6.07;;;2.03;;
69789;SDS011;57064;52.046;4.800;2022-08-19T13:02:40;4.28;;;1.73;;
69789;SDS011;57064;52.046;4.800;2022-08-19T13:05:14;3.83;;;1.87;;
69789;SDS011;57064;52.046;4.800;2022-08-19T13:07:45;3.63;;;2.30;;
69789;SDS011;57064;52.046;4.800;2022-08-19T13:10:12;5.28;;;1.92;;
69789;SDS011;57064;52.046;4.800;2022-08-19T13:12:43;4.32;;;2.22;;
69789;SDS011;57064;52.046;4.800;2022-08-19T13:15:10;5.18;;;2.35;;
69789;SDS011;57064;52.046;4.800;2022-08-19T13:17:38;3.25;;;2.50;;
69789;SDS011;57064;52.046;4.800;2022-08-19T13:20:06;6.47;;;4.45;;
69789;SDS011;57064;52.046;4.800;2022-08-19T13:22:33;9.65;;;4.88;;
69789;SDS011;57064;52.046;4.800;2022-08-19T13:25:01;5.78;;;4.20;;
69789;SDS011;57064;52.046;4.800;2022-08-19T13:27:31;5.63;;;3.22;;
69789;SDS011;57064;52.046;4.800;2022-08-19T13:30:00;6.70;;;2.83;;
69789;SDS011;57064;52.046;4.800;2022-08-19T13:32:45;4.60;;;3.33;;
69789;SDS011;57064;52.046;4.800;2022-08-19T13:35:29;5.35;;;4.45;;
69789;SDS011;57064;52.046;4.800;2022-08-19T13:37:55;7.00;;;4.18;;
69789;SDS011;57064;52.046;4.800;2022-08-19T13:40:22;5.90;;;4.22;;
69789;SDS011;57064;52.046;4.800;2022-08-19T13:42:51;4.95;;;4.03;;
69789;SDS011;57064;52.046;4.800;2022-08-19T13:45:21;8.63;;;3.78;;
69789;SDS011;57064;52.046;4.800;2022-08-19T13:47:49;6.00;;;3.88;;
69789;SDS011;57064;52.046;4.800;2022-08-19T13:50:18;5.07;;;3.30;;
69789;SDS011;57064;52.046;4.800;2022-08-19T13:52:47;6.32;;;3.50;;
69789;SDS011;57064;52.046;4.800;2022-08-19T13:55:14;6.03;;;2.85;;
69789;SDS011;57064;52.046;4.800;2022-08-19T13:57:41;3.45;;;2.60;;
69789;SDS011;57064;52.046;4.800;2022-08-19T14:00:08;4.18;;;2.70;;
69789;SDS011;57064;52.046;4.800;2022-08-19T14:02:36;4.07;;;2.70;;
69789;SDS011;57064;52.046;4.800;2022-08-19T14:05:04;4.47;;;3.17;;
69789;SDS011;57064;52.046;4.800;2022-08-19T14:07:31;3.97;;;3.00;;
69789;SDS011;57064;52.046;4.800;2022-08-19T14:09:57;6.10;;;4.07;;
69789;SDS011;57064;52.046;4.800;2022-08-19T14:12:23;7.40;;;5.03;;
69789;SDS011;57064;52.046;4.800;2022-08-19T14:14:49;7.75;;;5.13;;
69789;SDS011;57064;52.046;4.800;2022-08-19T14:17:15;10.25;;;6.88;;
69789;SDS011;57064;52.046;4.800;2022-08-19T14:19:42;9.48;;;5.85;;
69789;SDS011;57064;52.046;4.800;2022-08-19T14:22:08;8.48;;;5.78;;
69789;SDS011;57064;52.046;4.800;2022-08-19T14:24:36;7.85;;;5.70;;
69789;SDS011;57064;52.046;4.800;2022-08-19T14:27:04;9.80;;;6.68;;
69789;SDS011;57064;52.046;4.800;2022-08-19T14:29:31;10.90;;;6.30;;
69789;SDS011;57064;52.046;4.800;2022-08-19T14:31:59;9.38;;;5.70;;
69789;SDS011;57064;52.046;4.800;2022-08-19T14:34:26;10.55;;;6.07;;
69789;SDS011;57064;52.046;4.800;2022-08-19T14:36:52;8.55;;;6.30;;
69789;SDS011;57064;52.046;4.800;2022-08-19T14:39:18;10.43;;;6.57;;
69789;SDS011;57064;52.046;4.800;2022-08-19T14:41:45;12.70;;;6.55;;
69789;SDS011;57064;52.046;4.800;2022-08-19T14:44:11;12.43;;;6.43;;
69789;SDS011;57064;52.046;4.800;2022-08-19T14:46:37;13.30;;;6.68;;
69789;SDS011;57064;52.046;4.800;2022-08-19T14:49:05;14.10;;;6.32;;